createdAt,value
2023-03-28T00:01:13.126Z,60.18
2023-03-28T00:03:42.621Z,60.03
2023-03-28T00:06:19.167Z,60.02
2023-03-28T00:08:48.387Z,60.22
2023-03-28T00:11:20.565Z,60.28
2023-03-28T00:14:01.302Z,60.62
2023-03-28T00:16:33.004Z,60.41
2023-03-28T00:19:03.774Z,60.63
2023-03-28T00:21:33.831Z,60.94
2023-03-28T00:24:05.222Z,60.71
2023-03-28T00:26:36.192Z,60.98
2023-03-28T00:29:05.947Z,60.95
2023-03-28T00:31:35.446Z,61.23
2023-03-28T00:34:04.602Z,61.11
2023-03-28T00:36:33.617Z,61.13
2023-03-28T00:39:06.406Z,61.14
2023-03-28T00:41:36.406Z,61.24
2023-03-28T00:44:25.018Z,61.51
2023-03-28T00:46:54.018Z,61.38
2023-03-28T00:49:25.204Z,61.37
2023-03-28T00:52:02.592Z,61.43
2023-03-28T00:54:33.532Z,61.74
2023-03-28T00:57:02.761Z,61.57
2023-03-28T00:59:32.992Z,61.94
2023-03-28T01:02:02.133Z,62.12
2023-03-28T01:04:36.744Z,62.31
2023-03-28T01:07:06.166Z,62.07
2023-03-28T01:09:36.793Z,62.08
2023-03-28T01:12:05.622Z,62.49
2023-03-28T01:14:35.904Z,62.65
2023-03-28T01:17:04.975Z,62.76
2023-03-28T01:19:36.879Z,62.81
2023-03-28T01:22:21.732Z,62.64
2023-03-28T01:25:09.468Z,62.88
2023-03-28T01:27:42.102Z,62.89
2023-03-28T01:30:37.185Z,62.91
2023-03-28T01:33:39.257Z,62.98
2023-03-28T01:36:34.562Z,62.93
2023-03-28T01:39:13.760Z,62.92
2023-03-28T01:41:50.951Z,63.00
2023-03-28T01:44:32.921Z,62.92
2023-03-28T01:47:20.182Z,63.22
2023-03-28T01:49:52.415Z,63.04
2023-03-28T01:52:21.860Z,63.38
2023-03-28T01:54:50.449Z,63.65
2023-03-28T01:57:25.052Z,63.73
2023-03-28T02:00:10.710Z,63.56
2023-03-28T02:03:02.880Z,63.33
2023-03-28T02:05:38.841Z,63.35
2023-03-28T02:08:12.639Z,63.31
2023-03-28T02:10:45.843Z,63.24
2023-03-28T02:13:41.636Z,63.22
2023-03-28T02:16:31.452Z,63.30
2023-03-28T02:19:23.004Z,63.30
2023-03-28T02:22:16.708Z,63.37
2023-03-28T02:24:51.068Z,63.51
2023-03-28T02:27:53.298Z,63.33
2023-03-28T02:30:40.760Z,63.32
2023-03-28T02:33:30.489Z,63.44
2023-03-28T02:36:19.167Z,63.34
2023-03-28T02:38:55.880Z,63.34
2023-03-28T02:41:40.442Z,63.60
2023-03-28T02:44:12.049Z,63.74
2023-03-28T02:46:45.577Z,63.50
2023-03-28T02:49:20.821Z,63.70
2023-03-28T02:51:52.266Z,63.84
2023-03-28T02:54:30.191Z,63.68
2023-03-28T02:57:37.049Z,63.88
2023-03-28T03:00:12.378Z,63.93
2023-03-28T03:02:42.549Z,63.98
2023-03-28T03:05:12.097Z,63.94
2023-03-28T03:07:40.634Z,64.09
2023-03-28T03:10:10.258Z,64.05
2023-03-28T03:12:39.920Z,64.07
2023-03-28T03:15:08.569Z,63.96
2023-03-28T03:18:06.989Z,64.08
2023-03-28T03:20:35.827Z,64.04
2023-03-28T03:23:04.213Z,64.16
2023-03-28T03:25:35.499Z,63.94
2023-03-28T03:28:13.591Z,64.19
2023-03-28T03:30:44.591Z,64.40
2023-03-28T03:33:32.668Z,64.18
2023-03-28T03:36:06.657Z,64.84
2023-03-28T03:38:35.351Z,64.76
2023-03-28T03:41:03.745Z,64.58
2023-03-28T03:43:33.291Z,64.78
2023-03-28T03:46:02.999Z,64.83
2023-03-28T03:48:31.959Z,64.98
2023-03-28T03:51:02.451Z,64.66
2023-03-28T03:53:31.058Z,64.77
2023-03-28T03:56:09.876Z,64.93
2023-03-28T03:58:55.393Z,65.06
2023-03-28T04:01:30.506Z,65.13
2023-03-28T04:04:11.778Z,64.84
2023-03-28T04:07:02.555Z,64.83
2023-03-28T04:09:31.595Z,65.07
2023-03-28T04:12:03.758Z,64.93
2023-03-28T04:14:32.596Z,65.24
2023-03-28T04:17:30.409Z,65.64
2023-03-28T04:19:59.629Z,65.75
2023-03-28T04:22:31.384Z,65.61
2023-03-28T04:25:02.310Z,65.99
2023-03-28T04:27:37.551Z,65.76
2023-03-28T04:30:06.408Z,65.79
2023-03-28T04:32:54.874Z,65.97
2023-03-28T04:35:26.872Z,65.93
2023-03-28T04:37:58.229Z,65.97
2023-03-28T04:40:28.628Z,66.30
2023-03-28T04:43:10.606Z,65.93
2023-03-28T04:45:43.410Z,66.46
2023-03-28T04:48:15.540Z,67.03
2023-03-28T04:50:44.912Z,66.24
2023-03-28T04:53:14.753Z,66.25
2023-03-28T04:56:00.587Z,66.57
2023-03-28T04:58:30.606Z,66.50
2023-03-28T05:01:04.070Z,66.59
2023-03-28T05:03:55.537Z,66.14
2023-03-28T05:06:26.536Z,66.25
2023-03-28T05:08:54.948Z,66.48
2023-03-28T05:11:26.992Z,66.47
2023-03-28T05:13:55.539Z,66.91
2023-03-28T05:16:32.486Z,66.41
2023-03-28T05:19:25.497Z,66.77
2023-03-28T05:22:29.864Z,66.42
2023-03-28T05:25:00.439Z,66.75
2023-03-28T05:27:29.010Z,67.08
2023-03-28T05:29:57.909Z,66.62
2023-03-28T05:32:28.479Z,66.66
2023-03-28T05:34:57.121Z,66.86
2023-03-28T05:37:29.532Z,66.97
2023-03-28T05:39:59.534Z,66.82
2023-03-28T05:42:27.810Z,66.77
2023-03-28T05:44:56.825Z,67.02
2023-03-28T05:47:42.690Z,66.88
2023-03-28T05:50:11.800Z,66.96
2023-03-28T05:52:40.748Z,66.83
2023-03-28T05:55:09.618Z,66.91
2023-03-28T05:57:38.788Z,67.07
2023-03-28T06:00:15.275Z,67.32
2023-03-28T06:02:55.452Z,67.03
2023-03-28T06:05:32.615Z,67.26
2023-03-28T06:08:03.072Z,67.06
2023-03-28T06:10:31.886Z,67.14
2023-03-28T06:13:30.354Z,67.43
2023-03-28T06:15:58.798Z,67.58
2023-03-28T06:18:35.582Z,67.39
2023-03-28T06:21:04.569Z,67.85
2023-03-28T06:23:33.110Z,67.58
2023-03-28T06:26:03.051Z,68.03
2023-03-28T06:28:37.467Z,67.77
2023-03-28T06:31:34.387Z,68.26
2023-03-28T06:34:04.019Z,67.90
2023-03-28T06:36:32.495Z,68.16
2023-03-28T06:39:02.049Z,67.95
2023-03-28T06:41:31.300Z,68.03
2023-03-28T06:43:59.878Z,68.10
2023-03-28T06:46:47.835Z,68.06
2023-03-28T06:49:17.299Z,68.04
2023-03-28T06:52:05.304Z,68.09
2023-03-28T06:54:35.304Z,67.81
2023-03-28T06:57:03.827Z,67.66
2023-03-28T06:59:33.015Z,67.59
2023-03-28T07:02:04.488Z,67.62
2023-03-28T07:04:35.597Z,67.60
2023-03-28T07:07:04.429Z,67.53
2023-03-28T07:09:33.050Z,67.20
2023-03-28T07:12:07.689Z,67.59
2023-03-28T07:14:36.189Z,67.73
2023-03-28T07:17:04.630Z,67.27
2023-03-28T07:19:34.676Z,66.23
2023-03-28T07:22:03.449Z,65.46
2023-03-28T07:24:32.170Z,65.26
2023-03-28T07:29:36.149Z,66.71
2023-03-28T07:32:04.574Z,67.02
2023-03-28T07:34:33.899Z,66.48
2023-03-28T07:37:02.854Z,66.74
2023-03-28T07:39:50.544Z,65.98
2023-03-28T07:42:22.462Z,66.34
2023-03-28T07:44:51.257Z,66.11
2023-03-28T07:47:19.937Z,65.37
2023-03-28T07:49:48.297Z,65.52
2023-03-28T07:53:02.877Z,65.73
2023-03-28T07:58:13.127Z,65.46
2023-03-28T08:00:46.014Z,65.42
2023-03-28T08:03:41.476Z,65.41
2023-03-28T08:16:55.337Z,64.76
2023-03-28T08:19:26.154Z,64.43
2023-03-28T08:22:18.228Z,64.04
2023-03-28T08:24:55.068Z,64.30
2023-03-28T08:27:25.037Z,62.98
2023-03-28T08:29:58.378Z,62.26
2023-03-28T08:32:27.474Z,62.03
2023-03-28T08:34:58.109Z,62.80
2023-03-28T08:37:28.481Z,63.15
2023-03-28T08:39:59.269Z,61.70
2023-03-28T08:42:57.733Z,61.62
2023-03-28T08:45:45.705Z,61.43
2023-03-28T08:48:40.246Z,61.22
2023-03-28T08:51:35.796Z,60.35
2023-03-28T08:54:13.844Z,61.01
2023-03-28T08:56:50.449Z,60.36
2023-03-28T08:59:33.692Z,60.26
2023-03-28T09:02:02.969Z,61.11
2023-03-28T09:04:35.746Z,60.88
2023-03-28T09:07:14.877Z,60.74
2023-03-28T09:10:02.319Z,60.40
2023-03-28T09:12:39.442Z,60.33
2023-03-28T09:15:39.331Z,60.64
2023-03-28T09:18:34.089Z,58.97
2023-03-28T09:21:19.284Z,58.98
2023-03-28T09:23:51.409Z,59.26
2023-03-28T09:27:07.248Z,58.56
2023-03-28T09:29:42.020Z,59.32
2023-03-28T09:32:26.383Z,59.26
2023-03-28T09:34:55.596Z,58.28
2023-03-28T09:37:41.956Z,58.37
2023-03-28T09:40:19.465Z,59.12
2023-03-28T09:43:28.973Z,58.63
2023-03-28T09:46:30.455Z,58.24
2023-03-28T09:49:05.775Z,58.55
2023-03-28T09:51:37.896Z,58.78
2023-03-28T09:54:09.048Z,58.66
2023-03-28T09:56:41.390Z,59.17
2023-03-28T09:59:30.430Z,59.47
2023-03-28T10:02:04.677Z,59.59
2023-03-28T10:04:39.507Z,59.16
2023-03-28T10:07:30.703Z,58.54
2023-03-28T10:10:20.449Z,58.96
2023-03-28T10:12:57.519Z,58.53
2023-03-28T10:15:33.476Z,58.88
2023-03-28T10:18:25.315Z,59.20
2023-03-28T10:21:25.118Z,59.00
2023-03-28T10:24:12.710Z,58.76
2023-03-28T10:26:41.983Z,58.98
2023-03-28T10:29:14.308Z,58.53
2023-03-28T10:31:49.443Z,58.23
2023-03-28T10:34:33.851Z,58.34
2023-03-28T10:37:32.737Z,58.21
2023-03-28T10:40:19.300Z,58.10
2023-03-28T10:42:56.333Z,57.82
2023-03-28T10:45:51.556Z,57.34
2023-03-28T10:48:31.650Z,57.91
2023-03-28T10:51:11.264Z,57.93
2023-03-28T10:53:49.739Z,58.27
2023-03-28T10:56:22.468Z,58.55
2023-03-28T10:59:08.833Z,58.78
2023-03-28T11:01:56.715Z,59.13
2023-03-28T11:04:34.930Z,59.01
2023-03-28T11:07:23.426Z,58.88
2023-03-28T11:10:11.158Z,58.62
2023-03-28T11:12:57.854Z,58.44
2023-03-28T11:15:54.961Z,58.12
2023-03-28T11:18:36.305Z,58.28
2023-03-28T11:21:46.128Z,58.31
2023-03-28T11:24:44.124Z,58.21
2023-03-28T11:28:11.907Z,57.55
2023-03-28T11:30:48.978Z,57.33
2023-03-28T11:33:44.075Z,58.00
2023-03-28T11:36:47.936Z,57.58
2023-03-28T11:39:27.570Z,57.71
2023-03-28T11:41:59.906Z,57.56
2023-03-28T11:44:56.284Z,56.96
2023-03-28T11:47:37.750Z,56.42
2023-03-28T11:50:28.838Z,56.84
2023-03-28T11:53:16.785Z,56.89
2023-03-28T11:56:07.834Z,57.57
2023-03-28T11:59:06.329Z,57.79
2023-03-28T12:01:42.000Z,57.95
2023-03-28T12:04:23.199Z,57.90
2023-03-28T12:07:03.252Z,57.55
2023-03-28T12:09:44.667Z,57.18
2023-03-28T12:12:18.446Z,57.16
2023-03-28T12:14:56.529Z,57.13
2023-03-28T12:17:40.967Z,57.25
2023-03-28T12:20:35.577Z,57.26
2023-03-28T12:23:24.208Z,57.54
2023-03-28T12:26:47.714Z,57.79
2023-03-28T12:29:39.038Z,58.25
2023-03-28T12:32:36.752Z,58.31
2023-03-28T12:35:25.659Z,58.20
2023-03-28T12:38:02.397Z,57.84
2023-03-28T12:40:55.149Z,57.92
2023-03-28T12:43:34.238Z,57.54
2023-03-28T12:46:06.104Z,57.34
2023-03-28T12:49:02.561Z,57.36
2023-03-28T12:51:39.259Z,57.20
2023-03-28T12:54:17.886Z,57.63
2023-03-28T12:57:00.585Z,57.81
2023-03-28T12:59:39.514Z,57.68
2023-03-28T13:02:34.100Z,57.66
2023-03-28T13:05:21.471Z,57.68
2023-03-28T13:07:51.762Z,58.12
2023-03-28T13:10:27.347Z,58.09
2023-03-28T13:13:17.907Z,57.87
2023-03-28T13:16:01.788Z,57.91
2023-03-28T13:18:35.682Z,57.96
2023-03-28T13:21:05.944Z,58.04
2023-03-28T13:23:47.235Z,58.16
2023-03-28T13:26:16.340Z,57.98
2023-03-28T13:28:52.189Z,57.98
2023-03-28T13:31:26.784Z,57.91
2023-03-28T13:34:03.205Z,57.94
2023-03-28T13:36:33.233Z,58.22
2023-03-28T13:39:20.775Z,58.78
2023-03-28T13:41:49.803Z,58.89
2023-03-28T13:44:30.192Z,59.03
2023-03-28T13:46:59.085Z,59.40
2023-03-28T13:49:31.190Z,59.87
2023-03-28T13:52:06.962Z,59.79
2023-03-28T13:54:36.195Z,59.98
2023-03-28T13:57:14.199Z,59.91
2023-03-28T13:59:58.929Z,60.04
2023-03-28T14:02:32.313Z,60.04
2023-03-28T14:05:24.928Z,60.25
2023-03-28T14:07:56.083Z,60.21
2023-03-28T14:10:32.974Z,60.14
2023-03-28T14:13:05.652Z,60.23
2023-03-28T14:15:40.178Z,60.00
2023-03-28T14:18:24.824Z,60.06
2023-03-28T14:20:55.055Z,60.26
2023-03-28T14:23:31.870Z,60.20
2023-03-28T14:26:22.142Z,60.27
2023-03-28T14:29:01.534Z,60.56
2023-03-28T14:31:32.231Z,60.70
2023-03-28T14:34:32.459Z,60.82
2023-03-28T14:37:08.961Z,60.84
2023-03-28T14:39:40.886Z,60.77
2023-03-28T14:42:22.925Z,60.73
2023-03-28T14:44:54.594Z,60.81
2023-03-28T14:47:30.686Z,60.65
2023-03-28T14:50:01.668Z,60.80
2023-03-28T14:52:36.118Z,60.76
2023-03-28T14:55:06.741Z,60.61
2023-03-28T14:57:38.350Z,60.68
2023-03-28T15:00:13.104Z,60.54
2023-03-28T15:02:44.639Z,60.61
2023-03-28T15:05:17.813Z,60.46
2023-03-28T15:07:57.112Z,60.40
2023-03-28T15:10:27.393Z,60.54
2023-03-28T15:13:01.962Z,60.36
2023-03-28T15:15:33.828Z,60.25
2023-03-28T15:18:07.288Z,60.23
2023-03-28T15:20:39.475Z,60.28
2023-03-28T15:23:16.043Z,60.28
2023-03-28T15:25:45.093Z,59.81
2023-03-28T15:28:18.067Z,60.01
2023-03-28T15:30:49.928Z,60.03
2023-03-28T15:33:22.601Z,59.70
2023-03-28T15:36:06.515Z,60.04
2023-03-28T15:38:39.645Z,59.45
2023-03-28T15:41:19.698Z,59.66
2023-03-28T15:43:54.745Z,59.83
2023-03-28T15:46:33.979Z,59.62
2023-03-28T15:49:06.064Z,59.65
2023-03-28T15:51:48.054Z,59.68
2023-03-28T15:54:30.208Z,59.60
2023-03-28T15:57:02.555Z,59.48
2023-03-28T15:59:31.494Z,59.49
2023-03-28T16:02:25.323Z,59.03
2023-03-28T16:05:10.435Z,59.01
2023-03-28T16:07:46.171Z,59.13
2023-03-28T16:10:20.847Z,58.73
2023-03-28T16:13:14.650Z,58.38
2023-03-28T16:16:17.585Z,58.18
2023-03-28T16:19:13.783Z,57.80
2023-03-28T16:21:42.834Z,57.96
2023-03-28T16:24:11.641Z,58.10
2023-03-28T16:26:41.010Z,57.69
2023-03-28T16:29:11.766Z,57.94
2023-03-28T16:31:40.459Z,57.44
2023-03-28T16:34:10.176Z,57.40
2023-03-28T16:36:39.971Z,57.69
2023-03-28T16:39:08.663Z,57.49
2023-03-28T16:41:37.576Z,57.67
2023-03-28T16:44:07.019Z,57.31
2023-03-28T16:46:36.239Z,57.58
2023-03-28T16:49:05.051Z,57.39
2023-03-28T16:51:34.628Z,57.66
2023-03-28T16:54:03.273Z,57.66
2023-03-28T16:56:32.777Z,57.30
2023-03-28T16:59:04.420Z,57.46
2023-03-28T17:01:33.176Z,57.58
2023-03-28T17:04:21.319Z,57.65
2023-03-28T17:07:11.661Z,57.86
2023-03-28T17:10:08.295Z,57.90
2023-03-28T17:13:01.933Z,57.92
2023-03-28T17:15:53.499Z,57.77
2023-03-28T17:18:45.112Z,57.93
2023-03-28T17:21:35.583Z,57.74
2023-03-28T17:24:23.685Z,57.88
2023-03-28T17:27:17.278Z,57.80
2023-03-28T17:30:12.008Z,57.96
2023-03-28T17:33:04.719Z,58.15
2023-03-28T17:35:56.068Z,58.03
2023-03-28T17:38:50.575Z,58.16
2023-03-28T17:41:38.804Z,57.88
2023-03-28T17:44:28.766Z,57.84
2023-03-28T17:46:58.657Z,58.17
2023-03-28T17:49:27.829Z,57.99
2023-03-28T17:51:57.510Z,58.13
2023-03-28T17:54:26.636Z,58.05
2023-03-28T17:56:55.480Z,57.93
2023-03-28T17:59:24.221Z,57.85
2023-03-28T18:01:53.305Z,57.97
2023-03-28T18:04:22.552Z,58.15
2023-03-28T18:07:15.505Z,58.03
2023-03-28T18:09:45.945Z,58.10
2023-03-28T18:12:15.477Z,58.07
2023-03-28T18:14:45.125Z,58.21
2023-03-28T18:17:14.143Z,58.21
2023-03-28T18:19:43.271Z,58.20
2023-03-28T18:22:12.083Z,58.15
2023-03-28T18:24:41.471Z,57.97
2023-03-28T18:27:10.988Z,58.09
2023-03-28T18:29:39.463Z,58.00
2023-03-28T18:32:08.313Z,58.00
2023-03-28T18:34:37.795Z,58.20
2023-03-28T18:37:06.915Z,58.13
2023-03-28T18:39:36.760Z,58.12
2023-03-28T18:42:07.762Z,58.16
2023-03-28T18:44:37.611Z,58.13
2023-03-28T18:47:06.186Z,57.91
2023-03-28T18:49:34.924Z,57.89
2023-03-28T18:52:07.238Z,57.83
2023-03-28T18:54:36.915Z,58.02
2023-03-28T18:57:05.723Z,57.97
2023-03-28T18:59:34.636Z,57.74
2023-03-28T19:02:04.824Z,57.75
2023-03-28T19:04:35.210Z,57.79
2023-03-28T19:07:04.881Z,57.89
2023-03-28T19:09:33.640Z,57.74
2023-03-28T19:12:02.697Z,57.79
2023-03-28T19:14:31.940Z,57.86
2023-03-28T19:17:01.458Z,57.73
2023-03-28T19:19:30.291Z,58.04
2023-03-28T19:21:59.362Z,57.79
2023-03-28T19:24:28.346Z,57.98
2023-03-28T19:26:58.920Z,58.08
2023-03-28T19:29:28.897Z,57.90
2023-03-28T19:31:58.200Z,57.99
2023-03-28T19:34:28.192Z,58.02
2023-03-28T19:36:56.757Z,57.71
2023-03-28T19:39:25.410Z,57.67
2023-03-28T19:41:56.001Z,57.93
2023-03-28T19:44:25.370Z,57.89
2023-03-28T19:46:54.417Z,57.96
2023-03-28T19:49:23.479Z,58.00
2023-03-28T19:51:54.605Z,58.08
2023-03-28T19:54:23.482Z,58.33
2023-03-28T19:56:52.000Z,58.28
2023-03-28T19:59:20.942Z,58.36
2023-03-28T20:01:50.045Z,58.21
2023-03-28T20:04:21.193Z,58.12
2023-03-28T20:06:49.806Z,58.23
2023-03-28T20:09:18.634Z,58.27
2023-03-28T20:11:47.356Z,58.16
2023-03-28T20:14:18.489Z,58.53
2023-03-28T20:16:48.559Z,58.53
2023-03-28T20:19:18.405Z,58.46
2023-03-28T20:21:47.111Z,58.23
2023-03-28T20:24:18.461Z,58.60
2023-03-28T20:26:47.258Z,58.55
2023-03-28T20:29:15.689Z,58.23
2023-03-28T20:31:46.306Z,58.39
2023-03-28T20:34:14.967Z,58.31
2023-03-28T20:36:46.667Z,58.30
2023-03-28T20:39:17.225Z,58.41
2023-03-28T20:41:45.948Z,58.71
2023-03-28T20:44:20.635Z,58.66
2023-03-28T20:46:49.585Z,58.39
2023-03-28T20:49:18.392Z,58.45
2023-03-28T20:51:47.439Z,58.45
2023-03-28T20:54:23.519Z,58.52
2023-03-28T20:56:53.047Z,58.61
2023-03-28T20:59:22.963Z,58.35
2023-03-28T21:01:51.774Z,58.38
2023-03-28T21:04:20.865Z,58.63
2023-03-28T21:06:50.388Z,58.36
2023-03-28T21:09:19.024Z,58.45
2023-03-28T21:11:47.578Z,58.63
2023-03-28T21:14:16.776Z,58.40
2023-03-28T21:16:46.284Z,58.55
2023-03-28T21:19:15.145Z,58.52
2023-03-28T21:21:44.421Z,58.56
2023-03-28T21:24:13.051Z,58.59
2023-03-28T21:26:41.839Z,58.56
2023-03-28T21:29:11.224Z,58.57
2023-03-28T21:31:39.757Z,58.55
2023-03-28T21:34:08.415Z,58.56
2023-03-28T21:36:37.464Z,58.71
2023-03-28T21:39:05.923Z,58.53
2023-03-28T21:41:37.763Z,58.74
2023-03-28T21:44:07.136Z,58.86
2023-03-28T21:46:36.381Z,58.83
2023-03-28T21:49:05.462Z,59.07
2023-03-28T21:51:36.230Z,58.88
2023-03-28T21:54:05.292Z,58.90
2023-03-28T21:56:34.420Z,58.85
2023-03-28T21:59:03.237Z,58.93
2023-03-28T22:01:32.233Z,58.52
2023-03-28T22:04:01.360Z,58.79
2023-03-28T22:06:30.160Z,58.88
2023-03-28T22:08:59.222Z,58.95
2023-03-28T22:11:28.518Z,58.98
2023-03-28T22:14:02.580Z,59.25
2023-03-28T22:16:34.328Z,59.01
2023-03-28T22:19:03.463Z,58.84
2023-03-28T22:21:32.942Z,58.99
2023-03-28T22:24:04.150Z,59.00
2023-03-28T22:26:33.193Z,59.09
2023-03-28T22:29:01.856Z,59.14
2023-03-28T22:31:31.309Z,59.29
2023-03-28T22:34:00.249Z,59.18
2023-03-28T22:36:28.715Z,59.11
2023-03-28T22:38:57.559Z,59.29
2023-03-28T22:41:32.188Z,59.01
2023-03-28T22:44:01.334Z,58.85
2023-03-28T22:46:31.127Z,59.11
2023-03-28T22:48:59.575Z,58.99
2023-03-28T22:51:28.638Z,59.00
2023-03-28T22:54:02.061Z,58.77
2023-03-28T22:56:31.461Z,59.19
2023-03-28T22:59:01.720Z,59.36
2023-03-28T23:01:30.370Z,59.10
2023-03-28T23:03:59.333Z,58.98
2023-03-28T23:06:28.958Z,59.06
2023-03-28T23:08:58.997Z,59.08
2023-03-28T23:11:27.610Z,59.00
2023-03-28T23:13:56.525Z,59.21
2023-03-28T23:16:25.321Z,59.46
2023-03-28T23:18:53.964Z,59.54
2023-03-28T23:21:24.652Z,59.36
2023-03-28T23:23:53.780Z,59.66
2023-03-28T23:26:23.046Z,59.44
2023-03-28T23:28:51.619Z,59.52
2023-03-28T23:31:20.468Z,59.33
2023-03-28T23:33:49.605Z,59.40
2023-03-28T23:36:21.514Z,59.39
2023-03-28T23:38:50.305Z,59.28
2023-03-28T23:41:19.268Z,59.58
2023-03-28T23:43:48.170Z,59.50
2023-03-28T23:46:17.284Z,59.66
2023-03-28T23:48:46.792Z,59.41
2023-03-28T23:51:15.693Z,59.41
2023-03-28T23:53:44.092Z,59.50
2023-03-28T23:56:13.234Z,59.48
2023-03-28T23:58:43.246Z,59.27
